Time;durP1;ratioP1;P1;durP2;ratioP2;P2;SDS_P1;SDS_P2;PMS_P1;PMS_P2;Temp;Humidity;BMP_temperature;BMP_pressure;BME280_temperature;BME280_humidity;BME280_pressure;Samples;Min_cycle;Max_cycle;Signal;HPM_P1;HPM_P2
2022/09/13 00:00:34;;;;;;;4.50;4.20;;;18.30;72.60;;;;;;5036517;28;20448;-68
2022/09/13 00:03:01;;;;;;;4.30;4.00;;;18.20;72.60;;;;;;5041250;28;20788;-67
2022/09/13 00:05:29;;;;;;;4.90;4.40;;;18.20;73.10;;;;;;5042619;28;20936;-68
2022/09/13 00:07:56;;;;;;;4.80;4.40;;;18.20;73.90;;;;;;5035882;28;20453;-67
2022/09/13 00:10:25;;;;;;;4.65;4.20;;;18.20;74.50;;;;;;5043601;28;20436;-68
2022/09/13 00:12:53;;;;;;;4.20;3.90;;;18.10;73.90;;;;;;5039637;28;20425;-68
2022/09/13 00:15:20;;;;;;;4.00;3.70;;;18.10;73.60;;;;;;5034958;28;20437;-66
2022/09/13 00:17:47;;;;;;;4.60;4.20;;;18.10;73.40;;;;;;5037375;28;20433;-68
2022/09/13 00:20:14;;;;;;;4.20;3.90;;;18.10;73.20;;;;;;5040223;28;20448;-67
2022/09/13 00:22:41;;;;;;;4.10;3.70;;;18.10;73.80;;;;;;5039600;28;20421;-67
2022/09/13 00:25:08;;;;;;;4.30;3.90;;;18.10;74.20;;;;;;5041625;28;20437;-68
2022/09/13 00:27:36;;;;;;;4.20;3.80;;;18.00;73.90;;;;;;5040658;28;20898;-67
2022/09/13 00:30:06;;;;;;;4.53;4.20;;;18.00;75.20;;;;;;5037388;28;20436;-67
2022/09/13 00:32:34;;;;;;;4.23;3.93;;;18.00;75.80;;;;;;5032122;28;20445;-68
2022/09/13 00:35:01;;;;;;;4.57;4.07;;;17.90;76.50;;;;;;5036017;28;20899;-67
2022/09/13 00:37:29;;;;;;;4.50;4.10;;;17.90;75.90;;;;;;5037989;28;20442;-68
2022/09/13 00:39:55;;;;;;;4.50;4.10;;;17.90;75.70;;;;;;5037944;28;20523;-68
2022/09/13 00:42:26;;;;;;;4.50;4.10;;;17.90;75.20;;;;;;5043001;28;20492;-67
2022/09/13 00:44:59;;;;;;;4.53;3.95;;;17.90;75.70;;;;;;5050392;22;20448;-66
2022/09/13 00:47:34;;;;;;;4.47;4.18;;;17.80;75.80;;;;;;5032542;28;20429;-67
2022/09/13 00:50:07;;;;;;;4.30;3.90;;;17.90;75.30;;;;;;5041147;28;20435;-69
2022/09/13 00:52:36;;;;;;;4.40;4.00;;;17.90;75.70;;;;;;5039212;28;21011;-70
2022/09/13 00:55:08;;;;;;;4.65;4.25;;;17.80;75.80;;;;;;5038593;28;20438;-69
2022/09/13 00:57:37;;;;;;;5.50;4.50;;;17.90;75.70;;;;;;5036387;28;20434;-69
2022/09/13 01:00:10;;;;;;;4.57;4.20;;;17.90;76.10;;;;;;5046702;28;20927;-70
2022/09/13 01:02:40;;;;;;;5.03;3.90;;;17.80;75.30;;;;;;5040590;28;20436;-70
2022/09/13 01:05:08;;;;;;;4.37;4.03;;;17.80;76.90;;;;;;5046478;28;20436;-67
2022/09/13 01:07:35;;;;;;;5.10;4.45;;;17.70;76.00;;;;;;5039861;28;20982;-69
2022/09/13 01:10:05;;;;;;;4.90;4.40;;;17.70;76.00;;;;;;5043066;28;20460;-67
2022/09/13 01:12:39;;;;;;;4.83;4.30;;;17.70;75.50;;;;;;5038230;28;20432;-68
2022/09/13 01:15:07;;;;;;;4.90;4.50;;;17.70;75.40;;;;;;5046124;28;20459;-68
2022/09/13 01:17:34;;;;;;;4.80;4.40;;;17.60;75.90;;;;;;5044163;28;20875;-69
2022/09/13 01:20:04;;;;;;;5.00;4.60;;;17.60;75.40;;;;;;5047632;28;20429;-68
2022/09/13 01:23:19;;;;;;;5.53;4.15;;;17.60;75.40;;;;;;5039288;28;20933;-67
2022/09/13 01:26:19;;;;;;;4.72;4.32;;;17.60;75.40;;;;;;5043951;28;20433;-67
2022/09/13 01:29:19;;;;;;;4.55;4.22;;;17.60;76.40;;;;;;5041786;28;20836;-68
2022/09/13 01:31:53;;;;;;;4.70;4.30;;;17.60;76.20;;;;;;5040827;28;20434;-70
2022/09/13 01:34:30;;;;;;;4.50;4.20;;;17.50;76.20;;;;;;5043960;28;20938;-69
2022/09/13 01:37:20;;;;;;;5.00;4.60;;;17.50;76.30;;;;;;5044604;28;20441;-69
2022/09/13 01:40:04;;;;;;;4.30;4.00;;;17.50;75.90;;;;;;5044589;28;20468;-68
2022/09/13 01:42:44;;;;;;;4.95;4.55;;;17.50;76.10;;;;;;5042403;28;20449;-70
2022/09/13 01:45:21;;;;;;;5.20;4.80;;;17.50;76.30;;;;;;5057663;28;20459;-68
2022/09/13 01:47:53;;;;;;;4.63;4.28;;;17.50;76.40;;;;;;5060406;28;20535;-68
2022/09/13 01:50:25;;;;;;;5.13;4.72;;;17.50;78.00;;;;;;5062546;28;20428;-67
2022/09/13 01:52:56;;;;;;;4.70;4.30;;;17.40;77.80;;;;;;5038013;28;20430;-69
2022/09/13 01:55:32;;;;;;;4.60;4.10;;;17.40;77.80;;;;;;5045537;28;20429;-69
2022/09/13 01:58:07;;;;;;;5.10;4.70;;;17.40;77.80;;;;;;5038257;28;20431;-68
2022/09/13 02:00:41;;;;;;;5.30;4.80;;;17.40;77.70;;;;;;5035783;28;20924;-67
2022/09/13 02:03:14;;;;;;;5.00;4.60;;;17.40;78.00;;;;;;5038165;28;20436;-69
2022/09/13 02:05:45;;;;;;;5.28;4.88;;;17.40;77.90;;;;;;5044785;28;20433;-66
2022/09/13 02:08:16;;;;;;;5.33;4.83;;;17.40;79.20;;;;;;5039418;28;20444;-66
2022/09/13 02:10:48;;;;;;;5.15;4.75;;;17.40;79.80;;;;;;5037194;28;20431;-68
2022/09/13 02:13:21;;;;;;;5.90;5.30;;;17.40;79.30;;;;;;5038360;28;20429;-68
2022/09/13 02:15:52;;;;;;;4.75;4.35;;;17.40;79.10;;;;;;5041820;28;20436;-68
2022/09/13 02:18:27;;;;;;;5.00;4.63;;;17.40;79.50;;;;;;5045229;28;20430;-68
2022/09/13 02:20:59;;;;;;;5.00;4.60;;;17.40;79.00;;;;;;5037637;28;20453;-68
2022/09/13 02:23:32;;;;;;;5.80;5.30;;;17.40;79.60;;;;;;5036599;28;20437;-68
2022/09/13 02:26:01;;;;;;;4.97;4.57;;;17.40;79.30;;;;;;5039014;28;20434;-68
2022/09/13 02:28:32;;;;;;;5.05;4.65;;;17.40;79.70;;;;;;5039251;28;20441;-68
2022/09/13 02:31:01;;;;;;;5.50;5.00;;;17.40;80.20;;;;;;5045495;28;20440;-70
2022/09/13 02:33:33;;;;;;;5.07;4.68;;;17.40;79.90;;;;;;5042616;28;20957;-68
2022/09/13 02:36:03;;;;;;;5.50;5.00;;;17.40;80.40;;;;;;5047652;28;20433;-70
2022/09/13 02:38:33;;;;;;;5.13;4.72;;;17.40;80.30;;;;;;5042305;28;20811;-70
2022/09/13 02:41:06;;;;;;;5.10;4.60;;;17.40;80.30;;;;;;5047551;28;20457;-68
2022/09/13 02:43:37;;;;;;;4.88;4.38;;;17.40;80.50;;;;;;5048115;28;20938;-67
2022/09/13 02:46:14;;;;;;;4.83;4.43;;;17.40;80.60;;;;;;5043887;28;20462;-67
2022/09/13 02:48:52;;;;;;;5.60;5.10;;;17.50;80.20;;;;;;5060082;28;20440;-68
2022/09/13 02:51:28;;;;;;;5.10;4.60;;;17.50;80.40;;;;;;5046935;28;20429;-68
2022/09/13 02:54:04;;;;;;;5.40;4.90;;;17.50;80.00;;;;;;5041756;28;20433;-70
2022/09/13 02:56:37;;;;;;;5.30;4.70;;;17.50;80.20;;;;;;5042047;28;20435;-67
2022/09/13 02:59:12;;;;;;;5.00;4.60;;;17.50;79.70;;;;;;5032471;28;20924;-68
2022/09/13 03:01:40;;;;;;;5.10;4.70;;;17.50;79.90;;;;;;5040605;28;20948;-70
2022/09/13 03:04:08;;;;;;;4.88;4.47;;;17.50;79.90;;;;;;5063864;28;20429;-68
2022/09/13 03:06:35;;;;;;;4.68;4.38;;;17.50;80.10;;;;;;5066107;28;20431;-67
2022/09/13 03:09:05;;;;;;;5.05;4.65;;;17.50;80.00;;;;;;5071575;28;20425;-66
2022/09/13 03:11:43;;;;;;;5.40;5.00;;;17.50;80.80;;;;;;5049341;28;20484;-67
2022/09/13 03:14:33;;;;;;;4.97;4.55;;;17.50;81.10;;;;;;5038757;28;20949;-69
2022/09/13 03:17:13;;;;;;;4.60;4.30;;;17.50;80.90;;;;;;5041309;28;20434;-69
2022/09/13 03:19:56;;;;;;;4.80;4.30;;;17.50;80.50;;;;;;5056279;28;20429;-68
2022/09/13 03:22:37;;;;;;;4.60;4.20;;;17.50;80.60;;;;;;5048303;28;20460;-70
2022/09/13 03:25:12;;;;;;;4.80;4.50;;;17.50;79.40;;;;;;5043178;28;20438;-68
2022/09/13 03:27:46;;;;;;;4.80;4.50;;;17.50;78.70;;;;;;5054495;28;20432;-68
2022/09/13 03:30:14;;;;;;;4.75;4.35;;;17.50;79.00;;;;;;5043369;28;20929;-70
2022/09/13 03:32:48;;;;;;;4.53;4.13;;;17.50;80.30;;;;;;5044605;28;20433;-68
2022/09/13 03:35:25;;;;;;;4.65;4.25;;;17.50;82.20;;;;;;5044238;28;20453;-69
2022/09/13 03:37:57;;;;;;;4.90;4.50;;;17.50;79.60;;;;;;5043050;28;20453;-68
2022/09/13 03:40:35;;;;;;;4.72;4.32;;;17.50;79.90;;;;;;5040930;28;20444;-68
2022/09/13 03:43:05;;;;;;;4.97;4.57;;;17.50;79.20;;;;;;5047356;28;20433;-69
2022/09/13 03:45:36;;;;;;;4.60;4.30;;;17.50;78.10;;;;;;5038045;28;20520;-68
2022/09/13 03:48:04;;;;;;;5.15;4.30;;;17.40;77.60;;;;;;5041126;28;20440;-68
2022/09/13 03:50:33;;;;;;;4.90;4.50;;;17.40;77.90;;;;;;5038247;28;20443;-68
2022/09/13 03:53:06;;;;;;;4.53;4.22;;;17.40;78.20;;;;;;5042299;28;20432;-67
2022/09/13 03:55:37;;;;;;;4.53;4.13;;;17.50;78.10;;;;;;5038217;28;20464;-68
2022/09/13 03:58:04;;;;;;;5.13;4.63;;;17.50;77.40;;;;;;5046866;28;20430;-68
2022/09/13 04:00:31;;;;;;;4.25;3.85;;;17.40;77.10;;;;;;5047360;28;20448;-69
2022/09/13 04:02:58;;;;;;;4.70;4.30;;;17.40;76.50;;;;;;5043849;28;20850;-70
2022/09/13 04:05:25;;;;;;;5.38;4.28;;;17.40;77.50;;;;;;5042401;28;20429;-67
2022/09/13 04:07:53;;;;;;;4.50;4.10;;;17.40;77.30;;;;;;5042395;28;20439;-68
2022/09/13 04:10:20;;;;;;;4.28;3.97;;;17.40;77.30;;;;;;5041235;28;20433;-70
2022/09/13 04:12:48;;;;;;;5.63;4.47;;;17.40;77.00;;;;;;5036761;28;20923;-70
2022/09/13 04:15:15;;;;;;;4.83;4.33;;;17.40;76.70;;;;;;5037689;28;20429;-69
2022/09/13 04:17:42;;;;;;;4.80;4.50;;;17.40;76.00;;;;;;5045022;28;20931;-68
2022/09/13 04:20:10;;;;;;;5.03;4.53;;;17.40;76.00;;;;;;5041147;28;20441;-67
2022/09/13 04:22:37;;;;;;;4.55;4.15;;;17.40;76.00;;;;;;5047687;28;20433;-67
2022/09/13 04:25:05;;;;;;;4.72;4.32;;;17.40;77.40;;;;;;5046396;28;20897;-69
2022/09/13 04:27:34;;;;;;;4.35;3.95;;;17.40;77.70;;;;;;5060404;28;20420;-68
2022/09/13 04:30:01;;;;;;;5.32;4.82;;;17.50;77.40;;;;;;5050186;28;20433;-69
2022/09/13 04:32:28;;;;;;;4.60;4.20;;;17.50;77.30;;;;;;5045765;28;20437;-68
2022/09/13 04:34:55;;;;;;;4.70;4.20;;;17.50;76.60;;;;;;5044447;28;20441;-68
2022/09/13 04:37:22;;;;;;;4.67;4.23;;;17.50;76.50;;;;;;5048888;28;20445;-69
2022/09/13 04:39:49;;;;;;;4.63;4.13;;;17.50;76.30;;;;;;5048384;28;20441;-67
2022/09/13 04:42:18;;;;;;;4.90;4.50;;;17.50;76.60;;;;;;5040136;28;20424;-72
2022/09/13 04:44:44;;;;;;;4.95;4.50;;;17.50;77.20;;;;;;5036816;28;20464;-69
2022/09/13 04:47:11;;;;;;;4.68;4.28;;;17.50;77.20;;;;;;5039405;28;20429;-67
2022/09/13 04:49:38;;;;;;;4.65;4.30;;;17.50;76.90;;;;;;5037857;28;20436;-69
2022/09/13 04:52:05;;;;;;;4.65;4.03;;;17.50;76.70;;;;;;5043191;28;21107;-68
2022/09/13 04:54:32;;;;;;;4.80;4.40;;;17.50;77.00;;;;;;5045125;28;20435;-69
2022/09/13 04:56:59;;;;;;;5.90;4.30;;;17.50;76.90;;;;;;5045607;28;20433;-68
2022/09/13 04:59:27;;;;;;;4.60;4.30;;;17.50;75.50;;;;;;5042848;28;20470;-67
2022/09/13 05:01:54;;;;;;;4.63;4.22;;;17.50;75.50;;;;;;5039792;28;20457;-68
2022/09/13 05:04:21;;;;;;;4.50;4.10;;;17.60;74.50;;;;;;5042054;28;20425;-69
2022/09/13 05:06:48;;;;;;;4.90;4.40;;;17.60;73.70;;;;;;5037379;28;21183;-68
2022/09/13 05:09:15;;;;;;;4.88;4.38;;;17.60;74.70;;;;;;5040271;28;20435;-71
2022/09/13 05:11:42;;;;;;;6.10;4.43;;;17.60;74.40;;;;;;5046808;28;20433;-69
2022/09/13 05:14:10;;;;;;;4.90;4.40;;;17.60;73.50;;;;;;5045172;28;20450;-69
2022/09/13 05:16:39;;;;;;;4.43;4.05;;;17.60;73.50;;;;;;5052123;28;20438;-69
2022/09/13 05:19:05;;;;;;;4.80;4.40;;;17.60;73.80;;;;;;5044790;28;20429;-70
2022/09/13 05:21:32;;;;;;;4.30;3.90;;;17.60;73.80;;;;;;5047211;28;20436;-69
2022/09/13 05:23:59;;;;;;;4.90;4.50;;;17.60;73.70;;;;;;5047068;28;20433;-67
2022/09/13 05:26:30;;;;;;;4.90;4.23;;;17.60;74.10;;;;;;5063559;28;20417;-68
2022/09/13 05:28:57;;;;;;;6.03;4.60;;;17.60;74.60;;;;;;5046913;28;20493;-70
2022/09/13 05:31:26;;;;;;;5.45;4.95;;;17.50;74.50;;;;;;5040820;28;20443;-68
2022/09/13 05:33:57;;;;;;;4.20;3.90;;;17.50;74.80;;;;;;5043492;28;20589;-67
2022/09/13 05:36:25;;;;;;;5.57;4.45;;;17.50;75.00;;;;;;5037868;28;20493;-67
2022/09/13 05:38:53;;;;;;;5.20;4.80;;;17.50;75.30;;;;;;5038858;28;20430;-70
2022/09/13 05:41:20;;;;;;;5.50;4.60;;;17.50;74.80;;;;;;5036349;28;20446;-68
2022/09/13 05:43:47;;;;;;;4.82;4.43;;;17.50;75.80;;;;;;5043053;28;20413;-68
2022/09/13 05:46:16;;;;;;;5.55;5.05;;;17.50;76.40;;;;;;5047756;28;20441;-69
2022/09/13 05:48:43;;;;;;;5.10;4.70;;;17.50;76.60;;;;;;5045892;28;20516;-68
2022/09/13 05:51:12;;;;;;;4.60;4.20;;;17.50;76.80;;;;;;5040453;28;20417;-70
2022/09/13 05:53:41;;;;;;;4.63;4.22;;;17.50;76.90;;;;;;5038864;28;20420;-69
2022/09/13 05:56:09;;;;;;;5.00;4.60;;;17.50;77.20;;;;;;5049771;28;20420;-68
2022/09/13 05:58:40;;;;;;;4.90;4.50;;;17.50;76.60;;;;;;5041266;28;20817;-69
2022/09/13 06:01:07;;;;;;;4.82;4.53;;;17.50;77.90;;;;;;5055167;28;20437;-70
2022/09/13 06:03:35;;;;;;;4.90;4.50;;;17.50;77.20;;;;;;5059707;28;20434;-69
2022/09/13 06:06:02;;;;;;;4.97;4.47;;;17.50;78.30;;;;;;5051787;28;20435;-70
2022/09/13 06:08:32;;;;;;;5.20;4.40;;;17.50;78.00;;;;;;5059074;28;20441;-74
2022/09/13 06:11:01;;;;;;;5.10;4.60;;;17.50;77.70;;;;;;5063631;28;20468;-69
2022/09/13 06:13:28;;;;;;;4.73;4.30;;;17.50;76.80;;;;;;5084025;28;20501;-66
2022/09/13 06:15:56;;;;;;;4.80;4.30;;;17.50;76.60;;;;;;5078627;28;20424;-67
2022/09/13 06:18:24;;;;;;;6.90;4.20;;;17.60;76.60;;;;;;5048980;28;20440;-68
2022/09/13 06:20:51;;;;;;;4.70;3.90;;;17.60;77.50;;;;;;5049348;28;20432;-70
2022/09/13 06:23:18;;;;;;;4.40;4.10;;;17.60;76.30;;;;;;5039627;28;20429;-70
2022/09/13 06:25:46;;;;;;;4.30;4.00;;;17.60;76.20;;;;;;5053111;28;20413;-68
2022/09/13 06:28:12;;;;;;;4.60;4.20;;;17.60;76.30;;;;;;5055115;28;20433;-68
2022/09/13 06:30:39;;;;;;;4.97;4.57;;;17.60;76.80;;;;;;5053088;28;20425;-68
2022/09/13 06:33:06;;;;;;;4.50;4.10;;;17.60;76.90;;;;;;5058561;28;20437;-68
2022/09/13 06:35:33;;;;;;;5.07;4.60;;;17.70;76.40;;;;;;5043223;28;20436;-69
2022/09/13 06:37:59;;;;;;;4.20;3.80;;;17.80;76.90;;;;;;5054574;28;20428;-68
2022/09/13 06:40:26;;;;;;;5.30;4.55;;;17.80;76.90;;;;;;5077660;28;20447;-68
2022/09/13 06:42:54;;;;;;;5.10;4.60;;;17.90;77.10;;;;;;5074005;28;20422;-68
2022/09/13 06:45:21;;;;;;;4.90;4.50;;;17.90;76.50;;;;;;5062820;28;20440;-66
2022/09/13 06:47:47;;;;;;;4.93;4.50;;;17.90;76.00;;;;;;5057637;28;20485;-66
2022/09/13 06:50:14;;;;;;;4.70;4.20;;;17.90;76.30;;;;;;5062925;28;20424;-68
2022/09/13 06:52:41;;;;;;;5.18;4.68;;;17.90;76.90;;;;;;5068025;28;20875;-68
2022/09/13 06:55:09;;;;;;;5.03;4.63;;;18.00;76.70;;;;;;5078137;28;20445;-67
2022/09/13 06:57:36;;;;;;;5.00;4.50;;;18.00;76.70;;;;;;5059553;28;20417;-67
2022/09/13 07:00:05;;;;;;;5.03;4.43;;;18.10;76.30;;;;;;5058556;28;20431;-69
2022/09/13 07:02:32;;;;;;;5.20;4.70;;;18.20;76.10;;;;;;5060806;28;20425;-68
2022/09/13 07:04:59;;;;;;;5.30;4.80;;;18.20;76.40;;;;;;5053917;28;20777;-68
2022/09/13 07:07:25;;;;;;;5.10;4.60;;;18.20;75.30;;;;;;5069787;28;20405;-68
2022/09/13 07:09:52;;;;;;;6.25;4.68;;;18.10;75.30;;;;;;5056262;28;20424;-68
2022/09/13 07:12:19;;;;;;;5.07;4.57;;;18.20;75.50;;;;;;5059691;28;20421;-69
2022/09/13 07:14:46;;;;;;;4.57;4.18;;;18.20;75.20;;;;;;5058529;28;20512;-69
2022/09/13 07:17:14;;;;;;;5.28;4.50;;;18.20;74.90;;;;;;5047196;28;20450;-68
2022/09/13 07:19:41;;;;;;;5.70;4.60;;;18.30;75.10;;;;;;5052884;28;20420;-68
2022/09/13 07:22:07;;;;;;;6.30;4.43;;;18.30;74.60;;;;;;5050275;28;20522;-68
2022/09/13 07:24:34;;;;;;;4.60;4.30;;;18.40;74.40;;;;;;5043502;28;20402;-70
2022/09/13 07:27:01;;;;;;;6.10;4.50;;;18.40;74.10;;;;;;5053478;28;20436;-70
2022/09/13 07:29:28;;;;;;;5.43;4.30;;;18.40;74.10;;;;;;5049416;28;20431;-68
2022/09/13 07:31:57;;;;;;;5.80;4.50;;;18.50;74.40;;;;;;5038420;28;20454;-68
2022/09/13 07:34:26;;;;;;;5.43;4.30;;;18.60;74.30;;;;;;5050199;28;20429;-70
2022/09/13 07:36:53;;;;;;;5.35;4.20;;;18.60;73.60;;;;;;5054924;28;20422;-69
2022/09/13 07:39:21;;;;;;;7.10;5.13;;;18.80;73.50;;;;;;5056424;28;20454;-70
2022/09/13 07:41:47;;;;;;;5.50;5.00;;;18.90;72.80;;;;;;5058498;28;20434;-68
2022/09/13 07:44:14;;;;;;;5.25;4.75;;;19.00;72.70;;;;;;5061440;28;20468;-68
2022/09/13 07:46:42;;;;;;;5.45;4.10;;;19.00;72.70;;;;;;5050584;28;20473;-70
2022/09/13 07:49:10;;;;;;;4.80;4.40;;;19.10;72.50;;;;;;5041574;28;20524;-68
2022/09/13 07:51:40;;;;;;;5.03;4.53;;;19.20;70.90;;;;;;5054469;28;20419;-69
2022/09/13 07:54:11;;;;;;;6.60;4.80;;;19.20;71.30;;;;;;5060159;28;20918;-68
2022/09/13 07:56:39;;;;;;;4.75;4.00;;;19.30;71.10;;;;;;5051606;28;20831;-70
2022/09/13 07:59:08;;;;;;;4.90;4.40;;;19.40;71.80;;;;;;5050402;28;20444;-68
2022/09/13 08:01:36;;;;;;;4.30;3.90;;;19.60;70.60;;;;;;5046366;28;20433;-68
2022/09/13 08:04:06;;;;;;;4.55;3.90;;;19.80;70.30;;;;;;5077324;28;20415;-70
2022/09/13 08:06:34;;;;;;;4.28;3.88;;;19.80;69.90;;;;;;5069769;28;20430;-68
2022/09/13 08:09:02;;;;;;;5.15;4.32;;;19.90;68.80;;;;;;5059828;28;20425;-68
2022/09/13 08:11:32;;;;;;;5.38;4.13;;;19.90;69.60;;;;;;5061046;28;20480;-71
2022/09/13 08:14:00;;;;;;;4.05;3.50;;;20.00;69.10;;;;;;5064622;28;20436;-70
2022/09/13 08:16:28;;;;;;;6.30;4.35;;;20.10;68.30;;;;;;5054263;28;21022;-68
2022/09/13 08:18:57;;;;;;;6.30;4.20;;;20.30;67.60;;;;;;5051750;28;20966;-68
2022/09/13 08:21:25;;;;;;;5.30;3.90;;;20.30;66.10;;;;;;5050279;28;20896;-69
2022/09/13 08:23:55;;;;;;;4.50;3.90;;;20.30;66.70;;;;;;5041140;28;20463;-70
2022/09/13 08:26:23;;;;;;;5.40;4.10;;;20.50;66.40;;;;;;5041521;28;20405;-69
2022/09/13 08:28:49;;;;;;;3.80;3.50;;;20.60;65.20;;;;;;5050810;28;20421;-67
2022/09/13 08:31:19;;;;;;;6.40;3.90;;;20.70;64.70;;;;;;5046412;28;20435;-68
2022/09/13 08:33:47;;;;;;;4.47;3.80;;;20.80;64.70;;;;;;5037694;28;20435;-69
2022/09/13 08:36:15;;;;;;;4.00;3.60;;;20.90;65.00;;;;;;5049313;28;20429;-69
2022/09/13 08:38:46;;;;;;;5.25;4.40;;;21.10;64.90;;;;;;5049799;28;20538;-69
2022/09/13 08:41:51;;;;;;;4.00;3.40;;;21.20;62.90;;;;;;5043674;28;20417;-68
2022/09/13 08:44:25;;;;;;;4.28;3.83;;;21.40;63.30;;;;;;5050708;28;20426;-69
2022/09/13 08:46:54;;;;;;;4.05;3.50;;;21.40;62.40;;;;;;5060362;28;20485;-68
2022/09/13 08:49:26;;;;;;;3.70;3.40;;;21.60;61.90;;;;;;5061388;28;20433;-69
2022/09/13 08:51:56;;;;;;;5.70;3.97;;;21.80;62.00;;;;;;5056309;28;20428;-69
2022/09/13 08:54:22;;;;;;;4.32;3.92;;;22.00;61.60;;;;;;5046715;28;20438;-68
2022/09/13 08:56:58;;;;;;;4.68;3.90;;;22.10;60.30;;;;;;5062075;28;20423;-68
2022/09/13 08:59:37;;;;;;;4.10;3.70;;;22.30;60.30;;;;;;5069969;28;20415;-68
2022/09/13 09:02:15;;;;;;;6.60;3.80;;;22.50;59.60;;;;;;5033594;28;20444;-70
2022/09/13 09:04:49;;;;;;;8.73;4.00;;;22.70;58.10;;;;;;5045657;28;20439;-69
2022/09/13 09:07:20;;;;;;;4.50;3.53;;;23.00;57.90;;;;;;5036634;28;20422;-69
2022/09/13 09:09:51;;;;;;;5.97;3.83;;;23.30;57.50;;;;;;5050175;28;20421;-69
2022/09/13 09:12:28;;;;;;;5.05;3.55;;;23.60;55.80;;;;;;5051560;28;20423;-69
2022/09/13 09:15:01;;;;;;;7.90;3.80;;;23.80;54.80;;;;;;5050157;28;20436;-69
2022/09/13 09:17:34;;;;;;;4.38;3.30;;;23.90;54.60;;;;;;5042089;28;20935;-70
2022/09/13 09:20:08;;;;;;;5.35;3.70;;;24.00;55.00;;;;;;5041422;28;20473;-68
2022/09/13 09:22:36;;;;;;;3.65;3.33;;;24.10;54.00;;;;;;5039783;28;20417;-69
2022/09/13 09:25:04;;;;;;;4.25;3.22;;;24.30;54.20;;;;;;5053196;28;20421;-69
2022/09/13 09:27:33;;;;;;;6.10;3.22;;;24.60;53.30;;;;;;5050410;28;20421;-69
2022/09/13 09:30:01;;;;;;;3.90;2.40;;;24.80;51.80;;;;;;5047742;28;20786;-70
2022/09/13 09:32:49;;;;;;;3.08;2.53;;;25.10;49.70;;;;;;5046152;28;20803;-71
2022/09/13 09:35:27;;;;;;;2.85;2.63;;;25.40;48.60;;;;;;5042040;28;20432;-71
2022/09/13 09:38:13;;;;;;;3.17;2.38;;;25.50;47.70;;;;;;5043213;28;20427;-69
2022/09/13 09:40:40;;;;;;;2.40;2.20;;;25.60;48.20;;;;;;5037825;28;20415;-68
2022/09/13 09:43:19;;;;;;;3.00;2.05;;;25.90;47.30;;;;;;5039884;28;20439;-70
2022/09/13 09:45:48;;;;;;;3.17;2.20;;;26.00;47.10;;;;;;5040361;28;20428;-69
2022/09/13 09:48:19;;;;;;;3.70;2.70;;;26.20;47.40;;;;;;5042520;28;20429;-70
2022/09/13 09:50:51;;;;;;;4.40;2.50;;;26.40;47.20;;;;;;5049895;28;20413;-69
2022/09/13 09:53:24;;;;;;;3.85;2.90;;;26.60;45.50;;;;;;5048074;28;21063;-71
2022/09/13 09:55:55;;;;;;;3.75;2.42;;;26.70;44.30;;;;;;5048593;28;20429;-69
2022/09/13 09:58:38;;;;;;;2.10;1.90;;;26.60;45.30;;;;;;5042105;28;20448;-68
2022/09/13 10:01:05;;;;;;;3.37;2.00;;;26.70;45.30;;;;;;5048350;28;20456;-71
2022/09/13 10:03:34;;;;;;;3.65;2.40;;;26.90;44.10;;;;;;5040098;28;20421;-70
2022/09/13 10:06:06;;;;;;;4.60;2.10;;;27.10;44.70;;;;;;5059512;28;20430;-70
2022/09/13 10:08:35;;;;;;;2.88;2.30;;;27.40;43.60;;;;;;5055805;28;20449;-70
2022/09/13 10:11:03;;;;;;;4.10;1.90;;;27.60;42.10;;;;;;5049746;28;20415;-70
2022/09/13 10:13:32;;;;;;;2.80;2.00;;;27.80;43.10;;;;;;5052960;28;20482;-71
2022/09/13 10:16:03;;;;;;;2.88;1.77;;;28.00;42.60;;;;;;5041782;28;20437;-70
2022/09/13 10:18:32;;;;;;;2.30;1.55;;;28.20;41.80;;;;;;5051002;28;20405;-69
2022/09/13 10:21:04;;;;;;;2.47;1.73;;;28.50;41.70;;;;;;5048939;28;20880;-68
2022/09/13 10:23:33;;;;;;;3.50;2.17;;;28.70;41.80;;;;;;5047995;28;20902;-70
2022/09/13 10:26:06;;;;;;;3.17;1.70;;;28.90;40.20;;;;;;5047665;28;20516;-70
2022/09/13 10:28:41;;;;;;;2.80;1.70;;;28.90;40.50;;;;;;5048956;28;20436;-70
2022/09/13 10:31:10;;;;;;;2.75;1.48;;;28.80;40.70;;;;;;5040715;28;20467;-71
2022/09/13 10:33:39;;;;;;;1.92;1.63;;;28.90;41.60;;;;;;5046267;28;21096;-71
2022/09/13 10:36:13;;;;;;;2.38;1.80;;;29.00;40.80;;;;;;5036546;28;20427;-70
2022/09/13 10:38:42;;;;;;;3.10;2.00;;;29.00;40.30;;;;;;5035657;28;20950;-68
2022/09/13 10:41:19;;;;;;;2.20;1.60;;;28.90;40.70;;;;;;5037995;28;20438;-69
2022/09/13 10:43:49;;;;;;;2.00;1.40;;;28.70;41.70;;;;;;5049329;28;20416;-70
2022/09/13 10:46:23;;;;;;;2.03;1.30;;;28.50;41.10;;;;;;5048136;28;20417;-69
2022/09/13 10:48:55;;;;;;;1.53;1.33;;;28.30;42.10;;;;;;5048735;28;20412;-69
2022/09/13 10:51:33;;;;;;;2.28;1.50;;;28.20;41.80;;;;;;5045089;28;20467;-68
2022/09/13 10:54:24;;;;;;;1.95;1.40;;;28.00;42.50;;;;;;5043761;28;20437;-70
2022/09/13 10:56:51;;;;;;;1.70;1.60;;;28.00;43.00;;;;;;5019248;28;20976;-69
2022/09/13 10:59:23;;;;;;;1.83;1.50;;;27.90;42.50;;;;;;5048468;28;20436;-70
2022/09/13 11:02:30;;;;;;;2.50;1.57;;;27.60;41.60;;;;;;5042382;28;20434;-68
2022/09/13 11:05:23;;;;;;;2.33;1.77;;;27.20;43.10;;;;;;5040577;28;20785;-72
2022/09/13 11:08:21;;;;;;;1.98;1.70;;;26.90;44.70;;;;;;5044129;28;20886;-68
2022/09/13 11:11:01;;;;;;;1.90;1.50;;;26.90;44.10;;;;;;5042277;28;20452;-70
2022/09/13 11:13:39;;;;;;;3.27;1.70;;;26.90;44.60;;;;;;5046672;28;20528;-70
2022/09/13 11:16:23;;;;;;;3.00;1.67;;;27.00;45.10;;;;;;5046932;28;21072;-70
2022/09/13 11:19:04;;;;;;;1.90;1.65;;;27.10;44.80;;;;;;5040439;28;20441;-69
2022/09/13 11:21:46;;;;;;;1.90;1.30;;;27.30;43.50;;;;;;5037144;28;20443;-67
2022/09/13 11:24:39;;;;;;;1.65;1.40;;;27.40;44.00;;;;;;5040577;28;20425;-70
2022/09/13 11:27:13;;;;;;;2.28;1.50;;;27.70;44.50;;;;;;5039643;28;20513;-69
2022/09/13 11:30:04;;;;;;;1.87;1.60;;;27.90;42.80;;;;;;5040275;28;20422;-67
2022/09/13 11:32:46;;;;;;;2.00;1.45;;;28.10;41.50;;;;;;5047380;28;20472;-69
2022/09/13 11:35:36;;;;;;;2.60;1.25;;;28.10;41.20;;;;;;5049920;28;20433;-70
2022/09/13 11:38:17;;;;;;;2.88;1.35;;;28.10;41.50;;;;;;5051222;28;20888;-70
2022/09/13 11:40:55;;;;;;;2.40;1.50;;;28.00;40.30;;;;;;5056464;28;20821;-69
2022/09/13 11:43:46;;;;;;;2.70;1.50;;;27.70;41.70;;;;;;5052205;28;20433;-70
2022/09/13 11:46:24;;;;;;;2.10;1.30;;;27.60;42.10;;;;;;5035828;28;20431;-70
2022/09/13 11:49:34;;;;;;;1.88;1.30;;;27.90;43.80;;;;;;5046489;28;20495;-71
2022/09/13 11:52:10;;;;;;;1.90;1.50;;;28.50;43.60;;;;;;5027754;28;20433;-68
2022/09/13 11:54:51;;;;;;;2.13;1.50;;;28.90;40.10;;;;;;5040609;28;20429;-68
2022/09/13 11:57:23;;;;;;;1.70;1.30;;;29.20;39.30;;;;;;5044749;28;20901;-71
2022/09/13 11:59:55;;;;;;;1.98;1.30;;;29.60;38.60;;;;;;5054557;28;21088;-70
2022/09/13 12:02:28;;;;;;;1.92;1.30;;;30.00;38.60;;;;;;5072772;28;21005;-70
2022/09/13 12:05:02;;;;;;;2.38;1.17;;;30.20;37.70;;;;;;5080905;28;20402;-70
2022/09/13 12:07:36;;;;;;;2.17;1.00;;;30.60;35.50;;;;;;5076100;28;20483;-74
2022/09/13 12:10:13;;;;;;;1.35;1.00;;;30.90;36.50;;;;;;5045439;28;20440;-68
2022/09/13 12:12:43;;;;;;;2.75;1.15;;;31.10;35.90;;;;;;5052853;28;20431;-69
2022/09/13 12:15:16;;;;;;;3.08;1.30;;;31.00;35.20;;;;;;5053054;28;20440;-69
2022/09/13 12:17:47;;;;;;;1.52;1.10;;;31.00;34.60;;;;;;5048955;28;20438;-68
2022/09/13 12:20:23;;;;;;;1.30;1.10;;;30.90;35.00;;;;;;5063013;28;20443;-70
2022/09/13 12:22:52;;;;;;;1.67;0.90;;;31.20;34.70;;;;;;5069893;28;20430;-67
2022/09/13 12:25:23;;;;;;;2.40;0.90;;;31.30;34.70;;;;;;5060725;28;20422;-69
2022/09/13 12:27:56;;;;;;;1.77;1.10;;;31.30;34.20;;;;;;5065019;28;20423;-68
2022/09/13 12:30:27;;;;;;;1.10;0.90;;;31.20;34.30;;;;;;5070019;28;20434;-70
2022/09/13 12:32:54;;;;;;;2.38;1.67;;;31.30;35.70;;;;;;5064463;28;20401;-67
2022/09/13 12:35:29;;;;;;;1.40;1.30;;;31.40;34.40;;;;;;5063373;28;20403;-70
2022/09/13 12:38:15;;;;;;;1.70;0.90;;;31.60;35.00;;;;;;5074976;28;20439;-67
2022/09/13 12:41:04;;;;;;;1.75;1.00;;;31.70;34.10;;;;;;5067235;28;20927;-67
2022/09/13 12:43:57;;;;;;;1.38;1.10;;;32.20;33.70;;;;;;5054417;28;20461;-69
2022/09/13 12:46:41;;;;;;;4.70;1.27;;;32.20;33.90;;;;;;5050328;28;20945;-68
2022/09/13 12:49:30;;;;;;;1.38;1.17;;;31.90;33.20;;;;;;5045277;28;20429;-69
2022/09/13 12:52:16;;;;;;;1.80;1.00;;;31.40;34.10;;;;;;5058794;28;20439;-70
2022/09/13 12:55:18;;;;;;;3.17;1.25;;;31.00;34.50;;;;;;5053761;28;20429;-69
2022/09/13 12:57:55;;;;;;;1.70;0.90;;;31.00;35.10;;;;;;5049247;28;20525;-69
2022/09/13 13:00:24;;;;;;;1.92;0.90;;;31.10;34.80;;;;;;5040148;28;20433;-69
2022/09/13 13:03:00;;;;;;;1.73;1.20;;;31.20;35.30;;;;;;5045262;28;20437;-69
2022/09/13 13:05:30;;;;;;;2.50;1.10;;;31.10;34.50;;;;;;5044120;28;20419;-68
2022/09/13 13:08:02;;;;;;;1.60;1.00;;;31.20;34.40;;;;;;5048459;28;20971;-70
2022/09/13 13:10:32;;;;;;;2.73;1.40;;;31.20;35.80;;;;;;5045053;28;21203;-68
2022/09/13 13:13:13;;;;;;;2.40;1.10;;;31.00;34.30;;;;;;5036058;28;20484;-69